createdAt,value
2018-06-21T00:02:09.735Z,5.20
2018-06-21T00:04:40.668Z,4.70
2018-06-21T00:07:12.823Z,4.77
2018-06-21T00:09:52.805Z,5.40
2018-06-21T00:12:23.425Z,5.03
2018-06-21T00:19:05.858Z,4.90
2018-06-21T00:22:09.383Z,5.67
2018-06-21T00:24:40.451Z,6.60
2018-06-21T00:34:01.574Z,6.63
2018-06-21T00:36:35.846Z,6.50
2018-06-21T00:39:14.237Z,6.17
2018-06-21T00:44:37.366Z,6.47
2018-06-21T00:47:37.752Z,6.67
2018-06-21T00:54:52.674Z,6.40
2018-06-21T00:57:26.314Z,7.07
2018-06-21T00:59:57.504Z,7.10
2018-06-21T01:02:28.586Z,6.60
2018-06-21T01:04:57.496Z,6.83
2018-06-21T01:07:26.557Z,7.27
2018-06-21T01:09:55.314Z,6.50
2018-06-21T01:12:29.117Z,7.33
2018-06-21T01:14:58.203Z,6.40
2018-06-21T01:17:30.737Z,7.73
2018-06-21T01:19:59.152Z,6.97
2018-06-21T01:22:32.386Z,7.27
2018-06-21T01:25:01.103Z,7.77
2018-06-21T01:27:42.134Z,7.43
2018-06-21T01:30:10.892Z,7.67
2018-06-21T01:32:39.726Z,7.90
2018-06-21T01:35:08.567Z,7.50
2018-06-21T01:37:38.198Z,7.53
2018-06-21T01:40:07.378Z,6.73
2018-06-21T01:42:40.290Z,6.87
2018-06-21T01:45:09.174Z,7.97
2018-06-21T01:47:42.276Z,6.57
2018-06-21T01:50:10.826Z,7.37
2018-06-21T01:52:44.317Z,7.67
2018-06-21T01:55:13.138Z,8.97
2018-06-21T01:57:46.498Z,8.20
2018-06-21T02:00:15.643Z,8.17
2018-06-21T02:02:48.920Z,7.73
2018-06-21T02:05:17.771Z,8.13
2018-06-21T02:07:50.778Z,7.67
2018-06-21T02:10:19.614Z,8.30
2018-06-21T02:12:53.074Z,7.63
2018-06-21T02:15:21.487Z,8.33
2018-06-21T02:17:54.111Z,8.87
2018-06-21T02:20:22.555Z,7.43
2018-06-21T02:22:50.966Z,8.40
2018-06-21T02:25:20.139Z,8.50
2018-06-21T02:27:48.954Z,8.40
2018-06-21T02:30:18.827Z,7.13
2018-06-21T02:32:47.958Z,8.03
2018-06-21T02:35:16.812Z,7.03
2018-06-21T02:37:45.226Z,7.83
2018-06-21T02:40:14.715Z,7.37
2018-06-21T02:42:43.532Z,8.93
2018-06-21T02:45:12.685Z,7.40
2018-06-21T02:47:42.547Z,7.27
2018-06-21T02:50:12.102Z,6.77
2018-06-21T02:52:40.553Z,6.53
2018-06-21T02:55:13.383Z,6.03
2018-06-21T02:57:43.423Z,6.50
2018-06-21T03:00:15.122Z,6.20
2018-06-21T03:02:44.071Z,6.60
2018-06-21T03:05:16.449Z,5.63
2018-06-21T03:07:45.262Z,5.70
2018-06-21T03:10:17.767Z,6.93
2018-06-21T03:12:46.296Z,6.50
2018-06-21T03:15:19.180Z,5.83
2018-06-21T03:17:48.205Z,6.30
2018-06-21T03:22:51.843Z,5.67
2018-06-21T03:25:24.946Z,5.90
2018-06-21T03:27:53.794Z,5.60
2018-06-21T03:30:36.494Z,5.47
2018-06-21T03:33:05.427Z,5.97
2018-06-21T03:35:33.899Z,6.47
2018-06-21T03:38:02.627Z,6.03
2018-06-21T03:40:33.950Z,5.97
2018-06-21T03:43:02.378Z,6.13
2018-06-21T03:45:34.883Z,6.23
2018-06-21T03:48:03.331Z,6.10
2018-06-21T03:50:44.853Z,6.47
2018-06-21T03:53:13.940Z,6.20
2018-06-21T03:55:42.377Z,6.10
2018-06-21T03:58:11.219Z,5.93
2018-06-21T04:00:40.686Z,6.47
2018-06-21T04:03:09.580Z,6.13
2018-06-21T04:05:51.058Z,6.43
2018-06-21T04:08:20.195Z,6.50
2018-06-21T04:10:49.058Z,6.03
2018-06-21T04:13:17.851Z,6.17
2018-06-21T04:15:47.121Z,6.00
2018-06-21T04:18:15.975Z,5.50
2018-06-21T04:20:57.420Z,6.80
2018-06-21T04:23:26.514Z,6.97
2018-06-21T04:25:55.322Z,6.03
2018-06-21T04:28:23.777Z,7.00
2018-06-21T04:30:55.036Z,6.93
2018-06-21T04:33:23.992Z,6.63
2018-06-21T04:35:55.818Z,7.83
2018-06-21T04:38:25.831Z,6.90
2018-06-21T04:41:08.697Z,8.00
2018-06-21T04:43:37.930Z,7.70
2018-06-21T04:46:06.755Z,7.47
2018-06-21T04:48:35.974Z,6.67
2018-06-21T04:51:05.123Z,7.10
2018-06-21T04:53:33.802Z,9.23
2018-06-21T04:56:04.270Z,9.20
2018-06-21T04:58:32.815Z,9.43
2018-06-21T05:01:05.915Z,10.27
2018-06-21T05:03:35.260Z,10.97
2018-06-21T05:06:10.747Z,10.53
2018-06-21T05:08:40.431Z,11.03
2018-06-21T05:11:12.252Z,10.57
2018-06-21T05:13:41.244Z,11.43
2018-06-21T05:16:14.599Z,12.03
2018-06-21T05:18:43.502Z,11.50
2018-06-21T05:21:15.649Z,13.47
2018-06-21T05:23:44.463Z,12.10
2018-06-21T05:26:17.356Z,12.27
2018-06-21T05:28:45.764Z,12.43
2018-06-21T05:31:18.436Z,10.83
2018-06-21T05:33:46.837Z,10.97
2018-06-21T05:36:19.755Z,11.87
2018-06-21T05:38:48.990Z,11.03
2018-06-21T05:41:22.198Z,11.97
2018-06-21T05:43:51.441Z,12.30
2018-06-21T05:46:24.319Z,12.63
2018-06-21T05:48:52.789Z,11.47
2018-06-21T05:51:26.474Z,10.73
2018-06-21T05:53:55.265Z,11.73
2018-06-21T05:56:27.603Z,11.70
2018-06-21T05:58:56.571Z,11.93
2018-06-21T06:01:29.313Z,13.30
2018-06-21T06:03:58.237Z,13.37
2018-06-21T06:06:31.478Z,14.40
2018-06-21T06:09:00.118Z,14.13
2018-06-21T06:11:34.330Z,15.50
2018-06-21T06:14:03.321Z,16.10
2018-06-21T06:16:35.047Z,14.90
2018-06-21T06:19:03.620Z,15.17
2018-06-21T06:21:36.617Z,14.93
2018-06-21T06:24:05.836Z,14.90
2018-06-21T06:26:40.450Z,14.43
2018-06-21T06:29:09.141Z,14.87
2018-06-21T06:31:42.404Z,14.10
2018-06-21T06:34:11.822Z,14.63
2018-06-21T06:36:44.461Z,14.33
2018-06-21T06:39:16.761Z,14.70
2018-06-21T06:41:46.457Z,14.60
2018-06-21T06:44:15.384Z,13.47
2018-06-21T06:46:56.493Z,15.93
2018-06-21T06:49:26.007Z,14.47
2018-06-21T06:51:55.386Z,16.20
2018-06-21T06:54:24.143Z,16.37
2018-06-21T06:56:53.504Z,15.87
2018-06-21T06:59:22.614Z,16.87
2018-06-21T07:01:56.014Z,17.00
2018-06-21T07:04:28.714Z,17.23
2018-06-21T07:06:58.221Z,16.60
2018-06-21T07:09:27.335Z,17.47
2018-06-21T07:11:59.023Z,19.00
2018-06-21T07:14:27.647Z,18.83
2018-06-21T07:17:01.446Z,18.50
2018-06-21T07:19:31.239Z,18.70
2018-06-21T07:22:03.214Z,18.17
2018-06-21T07:24:31.852Z,17.87
2018-06-21T07:27:06.762Z,17.33
2018-06-21T07:29:35.574Z,17.07
2018-06-21T07:32:08.183Z,17.33
2018-06-21T07:34:36.884Z,17.97
2018-06-21T07:37:09.951Z,16.13
2018-06-21T07:39:38.786Z,16.73
2018-06-21T07:42:20.431Z,17.43
2018-06-21T07:44:49.956Z,17.17
2018-06-21T07:47:18.804Z,15.63
2018-06-21T07:49:47.235Z,15.70
2018-06-21T07:52:18.029Z,14.37
2018-06-21T07:54:47.692Z,12.67
2018-06-21T07:57:18.118Z,12.97
2018-06-21T07:59:46.642Z,12.77
2018-06-21T08:02:21.196Z,8.97
2018-06-21T08:04:49.818Z,8.43
2018-06-21T08:07:22.718Z,8.40
2018-06-21T08:09:53.418Z,5.87
2018-06-21T08:12:25.682Z,5.13
2018-06-21T08:14:54.530Z,4.77
2018-06-21T08:17:26.236Z,4.80
2018-06-21T08:19:55.334Z,4.67
2018-06-21T08:22:36.545Z,4.63
2018-06-21T08:25:05.093Z,4.97
2018-06-21T08:27:33.969Z,5.00
2018-06-21T08:30:02.767Z,4.97
2018-06-21T08:32:31.611Z,4.67
2018-06-21T08:35:00.706Z,4.30
2018-06-21T08:37:34.107Z,4.00
2018-06-21T08:40:05.389Z,4.13
2018-06-21T08:42:35.185Z,3.63
2018-06-21T08:45:03.666Z,3.47
2018-06-21T08:47:39.576Z,3.50
2018-06-21T08:50:08.843Z,3.10
2018-06-21T08:52:40.676Z,3.60
2018-06-21T08:55:09.490Z,3.23
2018-06-21T08:57:43.334Z,3.67
2018-06-21T09:00:12.171Z,2.90
2018-06-21T09:02:43.857Z,3.27
2018-06-21T09:05:13.171Z,2.50
2018-06-21T09:07:46.647Z,2.80
2018-06-21T09:10:15.471Z,2.43
2018-06-21T09:12:48.373Z,3.23
2018-06-21T09:15:17.465Z,3.37
2018-06-21T09:17:49.379Z,3.80
2018-06-21T09:20:18.693Z,3.20
2018-06-21T09:22:52.093Z,2.70
2018-06-21T09:25:21.162Z,2.53
2018-06-21T09:27:56.706Z,3.20
2018-06-21T09:30:25.845Z,3.07
2018-06-21T09:32:59.497Z,3.20
2018-06-21T09:35:28.358Z,3.50
2018-06-21T09:38:04.238Z,3.60
2018-06-21T09:40:38.716Z,3.30
2018-06-21T09:43:13.698Z,2.63
2018-06-21T09:45:47.989Z,2.83
2018-06-21T09:48:23.482Z,2.30
2018-06-21T09:50:53.085Z,2.20
2018-06-21T09:53:21.489Z,2.30
2018-06-21T09:55:51.427Z,2.57
2018-06-21T09:58:23.617Z,2.50
2018-06-21T10:00:57.698Z,2.63
2018-06-21T10:03:30.764Z,2.50
2018-06-21T10:05:59.628Z,2.57
2018-06-21T10:08:29.536Z,2.70
2018-06-21T10:11:00.093Z,3.20
2018-06-21T10:13:29.088Z,2.50
2018-06-21T10:15:59.105Z,2.50
2018-06-21T10:18:29.997Z,2.67
2018-06-21T10:20:58.494Z,2.40
2018-06-21T10:23:27.646Z,2.87
2018-06-21T10:25:57.345Z,2.80
2018-06-21T10:28:25.744Z,2.87
2018-06-21T10:30:55.641Z,2.87
2018-06-21T10:33:25.197Z,3.00
2018-06-21T10:35:54.187Z,2.33
2018-06-21T10:38:25.223Z,2.73
2018-06-21T10:40:54.595Z,2.57
2018-06-21T10:43:27.171Z,2.17
2018-06-21T10:45:56.250Z,2.50
2018-06-21T10:48:26.359Z,2.47
2018-06-21T10:50:55.440Z,3.13
2018-06-21T10:53:31.436Z,2.57
2018-06-21T10:56:00.225Z,2.70
2018-06-21T10:58:33.173Z,2.53
2018-06-21T11:01:01.990Z,2.90
2018-06-21T11:03:33.234Z,3.13
2018-06-21T11:06:01.861Z,2.93
2018-06-21T11:08:34.576Z,2.40
2018-06-21T11:11:04.488Z,2.00
2018-06-21T11:13:46.016Z,2.20
2018-06-21T11:16:16.230Z,2.53
2018-06-21T11:18:45.084Z,2.23
2018-06-21T11:21:14.232Z,2.57
2018-06-21T11:23:45.202Z,1.87
2018-06-21T11:26:15.068Z,2.27
2018-06-21T11:28:46.363Z,2.33
2018-06-21T11:31:15.182Z,2.27
2018-06-21T11:33:46.884Z,2.10
2018-06-21T11:36:17.928Z,2.33
2018-06-21T11:38:50.373Z,1.90
2018-06-21T11:41:20.089Z,2.07
2018-06-21T11:43:49.752Z,1.73
2018-06-21T11:46:19.201Z,1.77
2018-06-21T11:48:51.539Z,2.00
2018-06-21T11:51:21.170Z,1.90
2018-06-21T11:53:54.437Z,1.60
2018-06-21T11:56:23.299Z,1.57
2018-06-21T11:58:58.284Z,1.20
2018-06-21T12:01:27.367Z,1.67
2018-06-21T12:04:01.683Z,1.73
2018-06-21T12:06:30.298Z,1.50
2018-06-21T12:09:02.755Z,1.60
2018-06-21T12:11:32.169Z,1.70
2018-06-21T12:14:06.214Z,1.60
2018-06-21T12:16:35.127Z,1.77
2018-06-21T12:19:09.459Z,2.90
2018-06-21T12:21:39.914Z,1.73
2018-06-21T12:24:09.084Z,1.77
2018-06-21T12:26:37.883Z,1.57
2018-06-21T12:29:13.252Z,1.70
2018-06-21T12:31:43.274Z,2.10
2018-06-21T12:34:14.539Z,1.60
2018-06-21T12:39:20.100Z,1.70
2018-06-21T12:41:49.796Z,1.40
2018-06-21T12:44:18.346Z,1.97
2018-06-21T12:46:47.882Z,1.50
2018-06-21T12:49:23.139Z,1.60
2018-06-21T12:51:52.120Z,1.80
2018-06-21T12:54:23.120Z,1.50
2018-06-21T12:56:53.171Z,1.87
2018-06-21T12:59:25.176Z,1.50
2018-06-21T13:01:54.715Z,1.63
2018-06-21T13:04:26.597Z,1.73
2018-06-21T13:09:41.526Z,1.47
2018-06-21T13:13:18.247Z,1.80
2018-06-21T13:15:47.723Z,1.60
2018-06-21T13:18:16.177Z,1.60
2018-06-21T13:20:45.546Z,1.57
2018-06-21T13:23:14.190Z,1.43
2018-06-21T13:25:43.238Z,1.70
2018-06-21T13:28:20.039Z,1.53
2018-06-21T13:30:49.000Z,3.30
2018-06-21T13:33:19.094Z,1.80
2018-06-21T13:35:48.302Z,1.83
2018-06-21T13:38:17.019Z,1.60
2018-06-21T13:40:46.018Z,1.90
2018-06-21T13:43:15.026Z,2.10
2018-06-21T13:45:45.606Z,1.40
2018-06-21T13:48:17.818Z,1.60
2018-06-21T13:50:47.815Z,1.80
2018-06-21T13:53:16.522Z,2.07
2018-06-21T13:55:50.686Z,1.97
2018-06-21T13:58:20.689Z,3.80
2018-06-21T14:00:49.644Z,1.73
2018-06-21T14:03:18.758Z,1.80
2018-06-21T14:05:51.840Z,2.10
2018-06-21T14:08:20.797Z,2.43
2018-06-21T14:10:55.266Z,2.17
2018-06-21T14:13:24.185Z,1.63
2018-06-21T14:16:05.981Z,1.87
2018-06-21T14:18:35.700Z,2.10
2018-06-21T14:21:07.183Z,1.70
2018-06-21T14:23:36.776Z,2.50
2018-06-21T14:26:07.099Z,1.60
2018-06-21T14:28:35.816Z,1.63
2018-06-21T14:31:05.401Z,1.90
2018-06-21T14:33:35.037Z,1.80
2018-06-21T14:36:07.996Z,1.70
2018-06-21T14:38:37.022Z,1.93
2018-06-21T14:41:09.829Z,1.90
2018-06-21T14:43:38.882Z,1.60
2018-06-21T14:46:13.209Z,2.13
2018-06-21T14:48:43.327Z,1.90
2018-06-21T14:51:14.447Z,1.67
2018-06-21T14:53:43.207Z,2.07
2018-06-21T14:56:16.629Z,1.43
2018-06-21T14:58:45.611Z,1.80
2018-06-21T15:01:17.845Z,1.80
2018-06-21T15:03:46.628Z,1.63
2018-06-21T15:06:21.220Z,1.57
2018-06-21T15:08:50.605Z,1.43
2018-06-21T15:11:22.541Z,1.37
2018-06-21T15:13:51.856Z,2.37
2018-06-21T15:16:24.616Z,1.43
2018-06-21T15:18:53.344Z,2.03
2018-06-21T15:21:25.541Z,1.57
2018-06-21T15:23:54.600Z,1.70
2018-06-21T15:26:36.436Z,1.70
2018-06-21T15:29:05.354Z,1.33
2018-06-21T15:31:35.240Z,1.67
2018-06-21T15:34:05.462Z,1.40
2018-06-21T15:36:35.876Z,1.80
2018-06-21T15:39:15.787Z,1.80
2018-06-21T15:41:45.614Z,1.90
2018-06-21T15:44:14.190Z,1.63
2018-06-21T15:46:43.154Z,1.30
2018-06-21T15:49:13.387Z,1.70
2018-06-21T15:54:15.949Z,2.07
2018-06-21T15:56:44.810Z,1.70
2018-06-21T15:59:14.199Z,2.30
2018-06-21T16:01:43.297Z,2.00
2018-06-21T16:04:12.021Z,1.80
2018-06-21T16:06:46.097Z,1.90
2018-06-21T16:09:15.104Z,1.73
2018-06-21T16:11:50.133Z,1.97
2018-06-21T16:14:19.492Z,2.07
2018-06-21T16:16:52.614Z,2.00
2018-06-21T16:19:21.847Z,2.47
2018-06-21T16:21:53.357Z,2.13
2018-06-21T16:24:22.825Z,1.67
2018-06-21T16:26:55.907Z,1.70
2018-06-21T16:29:24.740Z,2.20
2018-06-21T16:31:58.618Z,2.83
2018-06-21T16:34:28.170Z,2.00
2018-06-21T16:37:00.313Z,1.70
2018-06-21T16:39:29.369Z,1.73
2018-06-21T16:42:01.094Z,2.10
2018-06-21T16:44:35.451Z,2.10
2018-06-21T16:47:04.047Z,1.80
2018-06-21T16:49:33.094Z,1.97
2018-06-21T16:52:05.707Z,1.57
2018-06-21T16:54:34.606Z,1.70
2018-06-21T16:57:08.142Z,1.67
2018-06-21T16:59:37.711Z,1.50
2018-06-21T17:02:11.189Z,1.57
2018-06-21T17:04:40.805Z,1.47
2018-06-21T17:07:21.999Z,1.27
2018-06-21T17:09:52.680Z,1.43
2018-06-21T17:12:22.404Z,1.43
2018-06-21T17:14:51.796Z,1.30
2018-06-21T17:17:23.186Z,1.80
2018-06-21T17:19:52.542Z,1.50
2018-06-21T17:22:21.534Z,1.83
2018-06-21T17:24:50.423Z,1.20
2018-06-21T17:27:21.510Z,1.17
2018-06-21T17:29:50.260Z,1.60
2018-06-21T17:32:33.684Z,1.33
2018-06-21T17:35:07.209Z,1.23
2018-06-21T17:37:38.706Z,1.73
2018-06-21T17:40:07.389Z,1.80
2018-06-21T17:42:36.229Z,1.40
2018-06-21T17:45:05.025Z,1.60
2018-06-21T17:50:01.542Z,2.07
2018-06-21T17:52:31.434Z,1.67
2018-06-21T17:55:00.174Z,1.17
2018-06-21T17:57:32.565Z,2.17
2018-06-21T18:00:03.337Z,1.40
2018-06-21T18:02:34.201Z,1.70
2018-06-21T18:05:03.516Z,1.90
2018-06-21T18:07:44.898Z,1.80
2018-06-21T18:10:13.513Z,1.60
2018-06-21T18:12:43.508Z,1.40
2018-06-21T18:15:13.303Z,1.73
2018-06-21T18:17:44.442Z,1.90
2018-06-21T18:20:16.382Z,1.93
2018-06-21T18:22:46.234Z,1.40
2018-06-21T18:25:16.248Z,2.43
2018-06-21T18:27:46.201Z,1.60
2018-06-21T18:30:15.741Z,1.83
2018-06-21T18:32:48.531Z,1.57
2018-06-21T18:35:17.357Z,1.47
2018-06-21T18:37:53.676Z,1.87
2018-06-21T18:40:27.530Z,1.63
2018-06-21T18:42:56.658Z,1.80
2018-06-21T18:45:25.498Z,2.20
2018-06-21T18:47:55.766Z,2.37
2018-06-21T18:52:58.517Z,1.80
2018-06-21T18:55:27.315Z,1.93
2018-06-21T18:57:59.073Z,1.83
2018-06-21T19:00:28.327Z,2.03
2018-06-21T19:03:11.090Z,1.90
2018-06-21T19:05:41.169Z,1.77
2018-06-21T19:08:17.197Z,1.90
2018-06-21T19:10:51.174Z,1.73
2018-06-21T19:13:19.618Z,1.67
2018-06-21T19:15:48.621Z,1.63
2018-06-21T19:18:18.653Z,1.80
2018-06-21T19:20:47.749Z,2.07
2018-06-21T19:23:17.654Z,1.93
2018-06-21T19:25:46.406Z,2.03
2018-06-21T19:28:16.307Z,2.40
2018-06-21T19:30:48.757Z,1.90
2018-06-21T19:33:26.461Z,1.80
2018-06-21T19:35:55.050Z,1.90
2018-06-21T19:38:25.071Z,2.23
2018-06-21T19:40:55.187Z,2.33
2018-06-21T19:43:25.606Z,2.30
2018-06-21T19:45:55.635Z,2.00
2018-06-21T19:48:24.488Z,2.40
2018-06-21T19:50:53.543Z,2.40
2018-06-21T19:53:23.854Z,2.27
2018-06-21T19:55:52.361Z,2.00
2018-06-21T19:58:25.678Z,1.73
2018-06-21T20:00:56.194Z,2.13
2018-06-21T20:03:28.234Z,2.00
2018-06-21T20:05:58.754Z,2.30
2018-06-21T20:08:31.195Z,2.23
2018-06-21T20:11:04.908Z,2.40
2018-06-21T20:13:44.651Z,2.30
2018-06-21T20:16:13.963Z,2.90
2018-06-21T20:18:44.184Z,2.30
2018-06-21T20:21:17.695Z,2.10
2018-06-21T20:23:48.624Z,3.03
2018-06-21T20:26:19.774Z,2.30
2018-06-21T20:28:50.151Z,2.40
2018-06-21T20:31:19.263Z,1.90
2018-06-21T20:33:51.312Z,2.23
2018-06-21T20:36:25.292Z,2.00
2018-06-21T20:38:56.118Z,2.20
2018-06-21T20:41:26.633Z,2.17
2018-06-21T20:43:56.106Z,2.10
2018-06-21T20:46:27.822Z,2.03
2018-06-21T20:49:00.374Z,2.53
2018-06-21T20:51:33.574Z,2.00
2018-06-21T20:54:04.402Z,2.07
2018-06-21T20:56:38.603Z,1.70
2018-06-21T20:59:08.097Z,1.93
2018-06-21T21:01:41.689Z,2.07
2018-06-21T21:04:12.181Z,2.10
2018-06-21T21:09:22.493Z,2.03
2018-06-21T21:11:55.261Z,2.10
2018-06-21T21:14:25.187Z,2.17
2018-06-21T21:17:07.104Z,2.20
2018-06-21T21:19:36.143Z,2.23
2018-06-21T21:22:08.382Z,1.83
2018-06-21T21:24:38.043Z,2.20
2018-06-21T21:27:09.626Z,2.20
2018-06-21T21:29:44.786Z,1.70
2018-06-21T21:32:14.204Z,1.70
2018-06-21T21:34:43.676Z,2.10
2018-06-21T21:37:13.696Z,2.53
2018-06-21T21:39:43.641Z,1.87
2018-06-21T21:42:14.461Z,2.50
2018-06-21T21:44:44.219Z,2.30
2018-06-21T21:47:26.090Z,2.00
2018-06-21T21:49:56.482Z,1.83
2018-06-21T21:52:33.213Z,2.30
2018-06-21T21:55:05.362Z,2.40
2018-06-21T21:57:35.360Z,2.17
2018-06-21T22:00:15.226Z,1.90
2018-06-21T22:02:46.606Z,2.13
2018-06-21T22:07:56.442Z,2.33
2018-06-21T22:10:25.901Z,1.90
2018-06-21T22:12:55.663Z,1.97
2018-06-21T22:15:24.645Z,2.17
2018-06-21T22:17:55.853Z,2.77
2018-06-21T22:20:25.714Z,2.10
2018-06-21T22:22:55.327Z,2.10
2018-06-21T22:25:28.418Z,2.00
2018-06-21T22:27:57.885Z,2.30
2018-06-21T22:30:29.303Z,2.40
2018-06-21T22:32:59.097Z,2.50
2018-06-21T22:35:30.800Z,2.17
2018-06-21T22:37:59.507Z,2.33
2018-06-21T22:40:33.166Z,2.53
2018-06-21T22:43:03.483Z,2.70
2018-06-21T22:45:35.718Z,2.20
2018-06-21T22:48:05.032Z,2.97
2018-06-21T22:50:35.896Z,2.37
2018-06-21T22:53:05.937Z,2.37
2018-06-21T22:55:48.175Z,2.40
2018-06-21T22:58:17.236Z,2.43
2018-06-21T23:00:46.226Z,2.23
2018-06-21T23:03:15.290Z,2.03
2018-06-21T23:05:44.178Z,2.50
2018-06-21T23:08:12.633Z,2.33
2018-06-21T23:10:44.983Z,2.23
2018-06-21T23:13:14.204Z,3.00
2018-06-21T23:15:57.163Z,2.47
2018-06-21T23:18:37.152Z,2.67
2018-06-21T23:21:06.130Z,2.70
2018-06-21T23:23:35.254Z,2.90
2018-06-21T23:26:04.085Z,2.93
2018-06-21T23:28:32.811Z,2.60
2018-06-21T23:31:03.607Z,2.77
2018-06-21T23:33:33.690Z,2.63
2018-06-21T23:36:02.649Z,2.53
2018-06-21T23:38:31.983Z,2.87
2018-06-21T23:41:00.826Z,2.23
2018-06-21T23:43:29.833Z,2.43
2018-06-21T23:45:59.818Z,2.60
2018-06-21T23:48:28.631Z,2.63
2018-06-21T23:51:01.063Z,2.60
2018-06-21T23:53:30.573Z,2.47
2018-06-21T23:56:04.590Z,2.53
2018-06-21T23:58:33.629Z,2.43
